Portada
METAR-TAF:

METAR-TAF

Aeroports :

Campeche, Mèxic

latitud: 19-51N, longitud: 090-33W, altitud: 5 m

Observació

L'informe es va fer fa 44 minuts, a les 12:40 UTC
Vent calma
Temperatura 12°C
Humitat 94%
Pressió 1021 hPa
Visibilitat: 11.3 km
Cel clar

METAR: MMCP 231240Z 00000KT 7SM SKC 12/11 A3014

Hora: 07:24 (13:24 UTC)

Pronòstic

L'informe es va fer fa 8 hores i 51 minuts, a les 04:33 UTC
Pronòstic vàlid del 23 a les 06 UTC al 24 a les 06 UTC
Vent 10 kt del Nord/Nord-Est
Visibilitat: 9.7 km
Cel clar
calitja
Temporalment
l' 23 a les 12 UTC al 23 a les 15 UTC
Cel ennuvolat a una alçada de 1000 ft
A partir de les 23 a les 1800 UTC
Vent 15 kt del Nord/Nord-Oest
Visibilitat: 9.7 km
Cel ennuvolat a una alçada de 3000 ft
calitja
A partir de les 24 a les 0100 UTC
Vent 12 kt del Nord/Nord-Est
Visibilitat: 9.7 km
Cel clar
calitja

TAF: MMCP 230433Z 2306/2406 02010KT 6SM HZ SKC TEMPO 2312/2315 BKN010 FM231800 34015KT 6SM HZ BKN030 FM240100 03012KT 6SM HZ SKC

Observacions i pronòstics meteorològics de més de 4000 aeroports (METAR i TAF).

Les estacions disponibles són els punts grocs i vermells al mapa.

Posi el ratolí al punt desitjat per veure el nom de l'estació.

Feu clic per veure les observacions i els pronòstics meteorològics.

Per canviar el mapa: feu clic els botons verds amb una creu de color negre per apropar; al botó verd amb un guió per allunyar la imatge; o en les fletxes verdes per a mapes adjacents.


METAR-TAF: